Terminal Aerodrome Forecast
Issued by NWS

Home | Current Version | Previous Version | Text Only | Print | Product List | Glossary On
Versions: 1 2 3 4 5 6 7 8 9 10 11 12
067
FTUS44 KTSA 082324
TAFFYV
TAF
KFYV 082324Z 0900/0924 31022G31KT P6SM BKN070
     FM090100 30011KT P6SM FEW250
     FM091500 31012G19KT P6SM SKC=

USA.gov is the U.S. government's official web portal to all federal, state and local government web resources and services.